Date,TemperatureHighF,TemperatureAvgF,TemperatureLowF,DewpointHighF,DewpointAvgF,DewpointLowF,HumidityHigh,HumidityAvg,HumidityLow,PressureMaxIn,PressureMinIn,WindSpeedMaxMPH,WindSpeedAvgMPH,GustSpeedMaxMPH,PrecipitationSumIn
2013-5-1,77,61,42,43,37,31,80,44,22,30.44,30.30,14,2,16,0.00
2013-5-2,81,65,45,54,44,38,89,51,24,30.44,30.24,25,2,26,0.00
2013-5-3,72,62,52,44,38,33,63,42,24,30.47,30.29,17,3,18,0.00
2013-5-4,77,62,43,49,44,36,93,57,30,30.35,30.14,13,2,14,0.00
2013-5-5,75,59,41,45,40,35,93,54,27,30.29,30.12,14,2,14,0.00
2013-5-6,75,60,41,52,45,38,93,61,31,30.26,30.07,12,3,13,0.00
2013-5-7,81,67,50,56,53,48,93,64,36,30.15,30.01,14,2,14,0.00
2013-5-8,71,63,55,63,58,53,95,84,66,30.12,29.95,12,2,15,0.07
2013-5-9,70,60,49,58,55,48,98,85,63,30.00,29.85,9,1,12,0.00
2013-5-10,80,65,48,59,54,47,98,71,42,29.98,29.82,11,2,12,0.00
2013-5-11,69,65,58,65,61,52,96,87,71,29.82,29.65,14,3,16,0.36
2013-5-12,62,55,43,53,44,30,93,70,34,29.87,29.65,22,3,22,0.08
2013-5-13,54,48,38,36,31,27,84,53,41,30.09,29.86,21,4,26,0.00
2013-5-14,60,48,33,38,33,29,94,62,33,30.12,29.99,15,2,15,0.00
2013-5-15,67,52,33,55,44,31,95,77,51,30.05,29.60,18,2,19,0.04
2013-5-16,84,68,49,54,46,40,97,54,24,29.83,29.66,19,4,28,0.00
2013-5-17,70,61,51,50,43,40,81,54,37,30.20,29.83,18,4,21,0.00
2013-5-18,71,59,42,51,47,40,95,68,36,30.30,30.20,14,2,18,0.00
2013-5-19,59,58,55,57,54,51,95,89,83,30.30,30.13,11,2,12,0.04
2013-5-20,83,69,57,67,61,55,95,78,56,30.14,29.90,9,2,9,0.00
2013-5-21,90,73,60,72,66,59,97,81,54,29.93,29.75,20,2,23,0.07
2013-5-22,78,71,64,72,67,63,98,88,78,29.87,29.76,16,3,18,0.96
2013-5-23,76,70,66,70,66,62,96,87,76,29.82,29.70,18,3,18,0.35
2013-5-24,66,52,44,66,50,42,98,92,78,29.99,29.64,19,4,19,0.82
2013-5-25,48,46,44,45,43,40,95,89,78,29.95,29.89,26,7,29,0.58
2013-5-26,58,52,44,47,42,40,92,70,54,30.15,29.86,27,6,31,0.01
2013-5-27,74,58,38,46,41,36,95,59,28,30.21,30.09,15,2,17,0.00
2013-5-28,72,57,42,57,49,40,95,77,45,30.22,30.11,14,1,16,0.00
2013-5-29,82,67,58,72,63,56,98,89,69,30.12,29.89,26,2,40,1.62
2013-5-30,92,76,60,73,68,59,100,80,48,30.09,30.00,10,1,11,0.00
2013-5-31,94,80,64,73,68,63,98,71,41,30.10,29.90,14,2,16,0.00